createdAt,value
2023-05-12T00:01:17.248Z,3.22
2023-05-12T00:03:44.228Z,3.03
2023-05-12T00:06:11.459Z,3.40
2023-05-12T00:08:38.298Z,2.92
2023-05-12T00:11:04.950Z,3.03
2023-05-12T00:13:31.587Z,2.90
2023-05-12T00:15:59.338Z,2.75
2023-05-12T00:18:28.285Z,3.38
2023-05-12T00:20:55.680Z,3.17
2023-05-12T00:23:23.016Z,3.35
2023-05-12T00:25:50.342Z,2.40
2023-05-12T00:28:18.662Z,3.00
2023-05-12T00:30:45.571Z,2.92
2023-05-12T00:33:12.215Z,2.58
2023-05-12T00:35:38.819Z,2.88
2023-05-12T00:38:05.417Z,2.55
2023-05-12T00:40:32.091Z,2.80
2023-05-12T00:42:58.723Z,3.00
2023-05-12T00:45:25.409Z,2.80
2023-05-12T00:47:53.472Z,3.33
2023-05-12T00:50:21.203Z,3.40
2023-05-12T00:52:51.885Z,3.25
2023-05-12T00:55:18.976Z,3.20
2023-05-12T00:57:45.891Z,3.60
2023-05-12T01:00:13.062Z,3.38
2023-05-12T01:02:40.234Z,3.33
2023-05-12T01:05:07.172Z,3.45
2023-05-12T01:07:33.788Z,4.18
2023-05-12T01:10:00.513Z,3.63
2023-05-12T01:12:28.141Z,4.22
2023-05-12T01:14:56.996Z,3.92
2023-05-12T01:17:34.312Z,4.88
2023-05-12T01:20:04.588Z,4.75
2023-05-12T01:22:33.741Z,6.90
2023-05-12T01:25:07.688Z,6.00
2023-05-12T01:27:34.806Z,7.70
2023-05-12T01:30:04.065Z,9.55
2023-05-12T01:32:30.921Z,7.10
2023-05-12T01:34:57.721Z,7.95
2023-05-12T01:37:27.140Z,8.63
2023-05-12T01:42:20.824Z,9.48
2023-05-12T01:44:47.465Z,9.38
2023-05-12T01:47:15.877Z,9.55
2023-05-12T01:49:42.809Z,9.90
2023-05-12T01:52:09.484Z,8.43
2023-05-12T01:54:36.220Z,9.40
2023-05-12T01:57:02.908Z,8.05
2023-05-12T01:59:29.604Z,9.50
2023-05-12T02:01:56.269Z,9.93
2023-05-12T02:04:23.076Z,9.63
2023-05-12T02:06:49.802Z,8.45
2023-05-12T02:09:16.450Z,9.18
2023-05-12T02:11:43.040Z,8.98
2023-05-12T02:14:09.672Z,8.48
2023-05-12T02:16:36.418Z,8.05
2023-05-12T02:19:03.062Z,8.32
2023-05-12T02:21:29.690Z,8.80
2023-05-12T02:23:56.426Z,8.25
2023-05-12T02:26:23.043Z,6.88
2023-05-12T02:28:49.668Z,7.97
2023-05-12T02:31:16.289Z,7.13
2023-05-12T02:33:43.216Z,7.45
2023-05-12T02:36:09.838Z,7.82
2023-05-12T02:38:36.674Z,7.88
2023-05-12T02:41:03.325Z,7.80
2023-05-12T02:43:29.926Z,7.20
2023-05-12T02:45:56.534Z,8.38
2023-05-12T02:48:23.124Z,6.97
2023-05-12T02:50:49.812Z,6.50
2023-05-12T02:53:16.473Z,7.13
2023-05-12T02:55:43.122Z,6.45
2023-05-12T02:58:10.274Z,6.05
2023-05-12T03:00:36.967Z,5.97
2023-05-12T03:03:03.650Z,5.63
2023-05-12T03:05:30.758Z,5.38
2023-05-12T03:07:57.489Z,6.20
2023-05-12T03:10:24.122Z,6.28
2023-05-12T03:12:50.908Z,7.18
2023-05-12T03:15:17.594Z,7.45
2023-05-12T03:17:44.255Z,7.82
2023-05-12T03:20:11.257Z,7.72
2023-05-12T03:22:38.203Z,6.65
2023-05-12T03:25:05.977Z,6.78
2023-05-12T03:27:33.136Z,6.30
2023-05-12T03:30:05.092Z,6.95
2023-05-12T03:32:31.853Z,6.70
2023-05-12T03:34:58.712Z,7.13
2023-05-12T03:37:25.361Z,7.65
2023-05-12T03:39:51.994Z,6.55
2023-05-12T03:42:19.297Z,7.03
2023-05-12T03:44:45.968Z,7.57
2023-05-12T03:47:13.695Z,6.32
2023-05-12T03:49:40.717Z,6.68
2023-05-12T03:52:07.558Z,6.68
2023-05-12T03:54:36.019Z,6.10
2023-05-12T03:57:03.954Z,5.95
2023-05-12T03:59:31.682Z,6.32
2023-05-12T04:01:59.075Z,6.40
2023-05-12T04:04:25.692Z,6.18
2023-05-12T04:06:52.509Z,5.18
2023-05-12T04:09:20.114Z,6.05
2023-05-12T04:11:46.735Z,5.63
2023-05-12T04:14:13.367Z,5.47
2023-05-12T04:16:40.953Z,5.43
2023-05-12T04:19:07.766Z,5.90
2023-05-12T04:21:34.514Z,5.72
2023-05-12T04:24:01.154Z,5.97
2023-05-12T04:26:27.776Z,5.55
2023-05-12T04:28:54.458Z,6.28
2023-05-12T04:31:21.204Z,6.47
2023-05-12T04:33:48.482Z,6.50
2023-05-12T04:36:15.351Z,7.85
2023-05-12T04:38:42.163Z,8.98
2023-05-12T04:41:09.317Z,8.88
2023-05-12T04:46:05.723Z,8.30
2023-05-12T04:48:32.435Z,7.82
2023-05-12T04:51:00.274Z,8.38
2023-05-12T04:53:27.799Z,9.40
2023-05-12T04:55:56.540Z,8.40
2023-05-12T04:58:23.443Z,8.30
2023-05-12T05:00:50.178Z,8.13
2023-05-12T05:03:16.897Z,7.63
2023-05-12T05:05:43.709Z,7.32
2023-05-12T05:08:10.391Z,8.32
2023-05-12T05:10:37.236Z,7.47
2023-05-12T05:13:04.053Z,8.02
2023-05-12T05:15:30.898Z,7.85
2023-05-12T05:17:59.374Z,8.02
2023-05-12T05:20:29.242Z,7.72
2023-05-12T05:22:56.119Z,8.18
2023-05-12T05:25:22.976Z,8.38
2023-05-12T05:27:49.853Z,7.95
2023-05-12T05:30:16.888Z,6.93
2023-05-12T05:32:43.728Z,7.10
2023-05-12T05:35:10.720Z,7.03
2023-05-12T05:37:37.386Z,7.47
2023-05-12T05:40:04.888Z,6.75
2023-05-12T05:42:31.469Z,6.20
2023-05-12T05:44:58.066Z,6.75
2023-05-12T05:47:24.832Z,6.28
2023-05-12T05:49:51.486Z,6.93
2023-05-12T05:52:18.200Z,6.60
2023-05-12T05:54:44.900Z,7.07
2023-05-12T05:57:11.537Z,6.25
2023-05-12T05:59:38.512Z,6.32
2023-05-12T06:02:05.463Z,6.35
2023-05-12T06:04:32.208Z,5.75
2023-05-12T06:06:58.777Z,6.32
2023-05-12T06:09:25.515Z,5.85
2023-05-12T06:11:52.274Z,7.50
2023-05-12T06:14:18.983Z,6.35
2023-05-12T06:16:45.599Z,6.45
2023-05-12T06:19:12.776Z,6.38
2023-05-12T06:21:39.524Z,5.97
2023-05-12T06:24:06.571Z,5.93
2023-05-12T06:26:33.327Z,5.82
2023-05-12T06:28:59.973Z,5.97
2023-05-12T06:31:27.008Z,5.97
2023-05-12T06:33:53.706Z,6.60
2023-05-12T06:36:20.531Z,5.60
2023-05-12T06:38:47.251Z,6.03
2023-05-12T06:41:13.868Z,5.80
2023-05-12T06:43:40.509Z,6.72
2023-05-12T06:46:07.163Z,5.53
2023-05-12T06:48:33.804Z,6.47
2023-05-12T06:51:00.524Z,6.10
2023-05-12T06:53:27.457Z,5.70
2023-05-12T06:55:55.183Z,5.18
2023-05-12T06:58:22.275Z,5.05
2023-05-12T07:00:49.076Z,4.78
2023-05-12T07:03:16.017Z,5.22
2023-05-12T07:05:42.819Z,5.03
2023-05-12T07:08:09.600Z,5.85
2023-05-12T07:10:36.280Z,5.10
2023-05-12T07:13:02.924Z,5.13
2023-05-12T07:15:31.272Z,5.15
2023-05-12T07:17:59.394Z,5.22
2023-05-12T07:20:26.233Z,5.35
2023-05-12T07:22:54.732Z,5.45
2023-05-12T07:25:22.298Z,5.03
2023-05-12T07:27:50.013Z,4.85
2023-05-12T07:30:17.265Z,4.95
2023-05-12T07:32:44.095Z,4.80
2023-05-12T07:35:10.800Z,4.68
2023-05-12T07:37:38.234Z,4.47
2023-05-12T07:40:05.270Z,4.45
2023-05-12T07:42:31.888Z,4.38
2023-05-12T07:44:58.762Z,4.70
2023-05-12T07:47:25.570Z,4.50
2023-05-12T07:49:52.318Z,3.83
2023-05-12T07:52:18.987Z,4.15
2023-05-12T07:54:45.676Z,4.63
2023-05-12T07:57:12.293Z,4.80
2023-05-12T07:59:38.941Z,4.00
2023-05-12T08:02:05.699Z,3.80
2023-05-12T08:04:32.473Z,4.07
2023-05-12T08:06:59.110Z,3.60
2023-05-12T08:09:25.836Z,3.90
2023-05-12T08:11:52.500Z,3.75
2023-05-12T08:14:19.123Z,3.55
2023-05-12T08:16:46.933Z,3.80
2023-05-12T08:19:14.072Z,3.92
2023-05-12T08:21:40.732Z,3.58
2023-05-12T08:24:07.537Z,3.60
2023-05-12T08:26:34.186Z,3.85
2023-05-12T08:29:01.643Z,3.95
2023-05-12T08:31:28.271Z,3.42
2023-05-12T08:36:26.211Z,4.20
2023-05-12T08:38:52.956Z,4.45
2023-05-12T08:41:25.578Z,4.07
2023-05-12T08:43:53.010Z,4.40
2023-05-12T08:46:20.319Z,4.22
2023-05-12T08:48:50.182Z,3.90
2023-05-12T08:51:19.311Z,3.92
2023-05-12T08:53:49.218Z,4.53
2023-05-12T08:58:49.850Z,4.07
2023-05-12T09:01:18.116Z,4.50
2023-05-12T09:03:45.507Z,4.20
2023-05-12T09:06:13.374Z,3.92
2023-05-12T09:08:40.915Z,4.07
2023-05-12T09:11:12.095Z,4.00
2023-05-12T09:13:46.185Z,4.72
2023-05-12T09:16:13.729Z,4.80
2023-05-12T09:18:49.443Z,5.38
2023-05-12T09:21:16.202Z,4.60
2023-05-12T09:23:56.185Z,5.20
2023-05-12T09:26:24.024Z,4.95
2023-05-12T09:28:53.229Z,5.10
2023-05-12T09:31:22.748Z,4.88
2023-05-12T09:33:50.844Z,5.80
2023-05-12T09:36:19.413Z,5.60
2023-05-12T09:38:46.067Z,4.90
2023-05-12T09:41:13.273Z,4.78
2023-05-12T09:43:46.675Z,5.15
2023-05-12T09:46:14.717Z,5.53
2023-05-12T09:48:42.002Z,5.68
2023-05-12T09:51:10.922Z,6.10
2023-05-12T09:53:43.014Z,5.28
2023-05-12T09:56:11.518Z,5.95
2023-05-12T09:58:43.856Z,4.80
2023-05-12T10:01:21.568Z,5.68
2023-05-12T10:03:53.128Z,4.97
2023-05-12T10:06:32.308Z,5.55
2023-05-12T10:09:18.496Z,5.53
2023-05-12T10:11:47.455Z,5.00
2023-05-12T10:14:14.431Z,5.10
2023-05-12T10:16:41.514Z,5.07
2023-05-12T10:19:10.308Z,6.82
2023-05-12T10:21:39.087Z,6.05
2023-05-12T10:24:06.321Z,5.70
2023-05-12T10:26:39.939Z,5.22
2023-05-12T10:29:07.044Z,5.22
2023-05-12T10:31:36.112Z,5.70
2023-05-12T10:34:03.577Z,4.57
2023-05-12T10:36:33.556Z,4.93
2023-05-12T10:39:06.455Z,5.13
2023-05-12T10:41:35.308Z,4.80
2023-05-12T10:44:02.140Z,5.68
2023-05-12T10:46:30.563Z,5.70
2023-05-12T10:49:04.544Z,4.90
2023-05-12T10:51:33.341Z,4.22
2023-05-12T10:54:08.043Z,5.53
2023-05-12T10:56:38.402Z,6.47
2023-05-12T10:59:14.876Z,5.40
2023-05-12T11:01:43.876Z,5.63
2023-05-12T11:04:16.213Z,3.72
2023-05-12T11:06:45.202Z,3.70
2023-05-12T11:09:13.610Z,4.50
2023-05-12T11:11:40.852Z,6.07
2023-05-12T11:14:08.567Z,5.43
2023-05-12T11:16:42.166Z,4.93
2023-05-12T11:19:08.970Z,4.60
2023-05-12T11:21:36.145Z,5.22
2023-05-12T11:24:03.560Z,5.38
2023-05-12T11:26:30.729Z,5.13
2023-05-12T11:28:58.821Z,5.03
2023-05-12T11:31:26.127Z,4.68
2023-05-12T11:34:11.866Z,5.10
2023-05-12T11:36:42.311Z,5.30
2023-05-12T11:39:23.394Z,5.70
2023-05-12T11:41:56.672Z,4.57
2023-05-12T11:44:29.350Z,4.10
2023-05-12T11:47:11.523Z,4.20
2023-05-12T11:49:52.374Z,3.35
2023-05-12T11:52:21.258Z,3.85
2023-05-12T11:54:52.707Z,4.07
2023-05-12T11:57:30.851Z,4.03
2023-05-12T12:00:07.039Z,3.80
2023-05-12T12:02:36.051Z,4.15
2023-05-12T12:05:03.158Z,4.50
2023-05-12T12:07:35.664Z,3.92
2023-05-12T12:10:16.858Z,3.95
2023-05-12T12:12:44.214Z,3.20
2023-05-12T12:15:12.082Z,4.13
2023-05-12T12:17:40.214Z,3.63
2023-05-12T12:20:08.162Z,3.70
2023-05-12T12:22:35.426Z,3.88
2023-05-12T12:25:05.159Z,4.60
2023-05-12T12:27:32.076Z,4.07
2023-05-12T12:29:59.090Z,4.05
2023-05-12T12:32:25.790Z,2.90
2023-05-12T12:34:53.441Z,3.15
2023-05-12T12:37:20.154Z,3.70
2023-05-12T12:39:47.970Z,2.92
2023-05-12T12:42:15.729Z,3.22
2023-05-12T12:44:42.634Z,2.83
2023-05-12T12:47:09.606Z,3.00
2023-05-12T12:49:36.385Z,3.97
2023-05-12T12:52:03.137Z,3.03
2023-05-12T12:54:29.880Z,2.63
2023-05-12T12:56:56.878Z,2.50
2023-05-12T12:59:23.614Z,2.97
2023-05-12T13:01:50.623Z,3.20
2023-05-12T13:04:22.334Z,3.42
2023-05-12T13:06:49.598Z,3.00
2023-05-12T13:09:19.782Z,3.10
2023-05-12T13:11:47.387Z,2.97
2023-05-12T13:14:14.351Z,3.50
2023-05-12T13:16:41.284Z,3.17
2023-05-12T13:19:08.458Z,3.00
2023-05-12T13:21:35.398Z,3.65
2023-05-12T13:24:02.191Z,3.13
2023-05-12T13:26:28.914Z,3.20
2023-05-12T13:28:55.696Z,2.90
2023-05-12T13:31:22.566Z,3.10
2023-05-12T13:33:49.374Z,3.28
2023-05-12T13:36:16.221Z,2.38
2023-05-12T13:38:43.222Z,2.50
2023-05-12T13:41:10.135Z,2.30
2023-05-12T13:43:37.381Z,2.63
2023-05-12T13:46:04.148Z,3.65
2023-05-12T13:48:31.176Z,2.50
2023-05-12T13:50:58.952Z,2.42
2023-05-12T13:53:25.689Z,2.33
2023-05-12T13:55:52.384Z,2.60
2023-05-12T13:58:19.275Z,2.65
2023-05-12T14:00:47.999Z,2.40
2023-05-12T14:03:15.841Z,2.22
2023-05-12T14:05:42.758Z,2.38
2023-05-12T14:08:09.573Z,2.42
2023-05-12T14:10:36.528Z,2.63
2023-05-12T14:13:03.491Z,2.38
2023-05-12T14:15:47.185Z,2.20
2023-05-12T14:18:16.427Z,2.30
2023-05-12T14:20:43.245Z,2.80
2023-05-12T14:23:09.973Z,2.90
2023-05-12T14:25:36.724Z,2.20
2023-05-12T14:28:03.848Z,2.30
2023-05-12T14:30:30.660Z,2.70
2023-05-12T14:32:57.448Z,2.38
2023-05-12T14:35:27.681Z,2.78
2023-05-12T14:37:55.232Z,2.58
2023-05-12T14:40:22.152Z,2.50
2023-05-12T14:42:49.099Z,2.30
2023-05-12T14:45:16.102Z,2.40
2023-05-12T14:47:42.871Z,3.17
2023-05-12T14:50:10.589Z,2.10
2023-05-12T14:52:40.218Z,2.20
2023-05-12T14:55:11.901Z,2.92
2023-05-12T14:57:42.422Z,3.22
2023-05-12T15:00:13.675Z,2.70
2023-05-12T15:02:41.907Z,2.60
2023-05-12T15:05:10.565Z,2.57
2023-05-12T15:07:37.977Z,2.57
2023-05-12T15:10:05.812Z,2.50
2023-05-12T15:12:33.408Z,2.78
2023-05-12T15:15:02.322Z,2.92
2023-05-12T15:17:29.321Z,2.78
2023-05-12T15:19:56.394Z,2.88
2023-05-12T15:22:23.073Z,2.80
2023-05-12T15:24:49.722Z,2.38
2023-05-12T15:27:16.359Z,2.17
2023-05-12T15:29:43.116Z,2.38
2023-05-12T15:32:09.850Z,2.58
2023-05-12T15:34:36.687Z,2.67
2023-05-12T15:37:03.736Z,2.40
2023-05-12T15:39:30.426Z,3.20
2023-05-12T15:41:57.296Z,3.03
2023-05-12T15:44:24.766Z,3.08
2023-05-12T15:46:51.505Z,3.15
2023-05-12T15:49:18.435Z,3.38
2023-05-12T15:51:45.188Z,3.25
2023-05-12T15:54:12.609Z,2.92
2023-05-12T15:56:39.422Z,2.88
2023-05-12T15:59:06.956Z,3.20
2023-05-12T16:01:34.031Z,3.40
2023-05-12T16:04:01.061Z,3.35
2023-05-12T16:06:27.840Z,3.10
2023-05-12T16:08:54.586Z,3.00
2023-05-12T16:11:21.602Z,2.72
2023-05-12T16:13:48.499Z,2.53
2023-05-12T16:16:16.751Z,2.10
2023-05-12T16:18:43.678Z,2.10
2023-05-12T16:21:11.859Z,2.25
2023-05-12T16:23:38.643Z,2.30
2023-05-12T16:26:06.495Z,2.50
2023-05-12T16:28:34.667Z,2.10
2023-05-12T16:31:02.542Z,2.47
2023-05-12T16:33:29.940Z,2.40
2023-05-12T16:35:56.733Z,3.00
2023-05-12T16:38:23.569Z,3.83
2023-05-12T16:40:50.530Z,3.78
2023-05-12T16:43:17.274Z,3.40
2023-05-12T16:46:04.329Z,3.42
2023-05-12T16:48:34.548Z,2.40
2023-05-12T16:51:02.596Z,3.03
2023-05-12T16:53:30.026Z,3.58
2023-05-12T16:55:57.653Z,3.17
2023-05-12T16:58:25.226Z,2.88
2023-05-12T17:00:52.266Z,3.08
2023-05-12T17:03:19.162Z,3.03
2023-05-12T17:05:47.115Z,2.50
2023-05-12T17:08:14.079Z,2.58
2023-05-12T17:10:40.781Z,2.83
2023-05-12T17:13:08.231Z,3.00
2023-05-12T17:15:37.507Z,3.05
2023-05-12T17:20:31.019Z,2.65
2023-05-12T17:22:57.977Z,3.53
2023-05-12T17:25:25.153Z,3.30
2023-05-12T17:27:51.880Z,3.00
2023-05-12T17:30:18.876Z,2.97
2023-05-12T17:32:45.709Z,3.40
2023-05-12T17:35:12.560Z,3.03
2023-05-12T17:37:39.725Z,3.20
2023-05-12T17:40:08.124Z,3.47
2023-05-12T17:42:35.395Z,3.73
2023-05-12T17:45:02.521Z,3.60
2023-05-12T17:47:29.193Z,3.03
2023-05-12T17:49:56.743Z,3.10
2023-05-12T17:52:23.677Z,3.30
2023-05-12T17:54:55.930Z,3.28
2023-05-12T17:57:22.964Z,3.50
2023-05-12T17:59:49.851Z,3.10
2023-05-12T18:02:16.777Z,3.55
2023-05-12T18:04:43.653Z,3.08
2023-05-12T18:07:10.543Z,3.03
2023-05-12T18:09:37.320Z,3.70
2023-05-12T18:12:04.349Z,3.58
2023-05-12T18:14:31.073Z,3.95
2023-05-12T18:16:57.935Z,4.07
2023-05-12T18:19:24.925Z,4.30
2023-05-12T18:21:54.543Z,4.30
2023-05-12T18:24:21.488Z,4.10
2023-05-12T18:26:48.346Z,4.10
2023-05-12T18:29:15.001Z,4.13
2023-05-12T18:31:44.288Z,4.40
2023-05-12T18:36:38.139Z,3.63
2023-05-12T18:39:06.560Z,4.05
2023-05-12T18:41:33.318Z,4.17
2023-05-12T18:44:00.121Z,4.40
2023-05-12T18:46:27.100Z,5.00
2023-05-12T18:48:54.024Z,6.22
2023-05-12T18:51:21.067Z,8.80
2023-05-12T18:53:47.970Z,7.13
2023-05-12T18:56:14.758Z,7.60
2023-05-12T18:58:41.653Z,6.22
2023-05-12T19:01:08.655Z,5.72
2023-05-12T19:03:35.609Z,5.80
2023-05-12T19:06:02.470Z,5.97
2023-05-12T19:08:29.461Z,5.50
2023-05-12T19:10:56.328Z,5.40
2023-05-12T19:13:23.048Z,5.63
2023-05-12T19:15:49.906Z,5.18
2023-05-12T19:18:17.378Z,5.45
2023-05-12T19:20:44.100Z,5.25
2023-05-12T19:23:11.126Z,5.18
2023-05-12T19:25:37.963Z,4.85
2023-05-12T19:28:05.107Z,4.72
2023-05-12T19:30:32.284Z,4.85
2023-05-12T19:32:59.351Z,5.20
2023-05-12T19:35:26.783Z,5.68
2023-05-12T19:37:53.812Z,4.95
2023-05-12T19:40:20.752Z,5.40
2023-05-12T19:42:47.819Z,5.45
2023-05-12T19:45:15.799Z,5.43
2023-05-12T19:47:43.123Z,5.25
2023-05-12T19:50:10.697Z,5.70
2023-05-12T19:52:38.185Z,5.43
2023-05-12T19:55:06.842Z,5.05
2023-05-12T19:57:33.894Z,5.05
2023-05-12T20:00:00.847Z,5.32
2023-05-12T20:02:31.069Z,5.80
2023-05-12T20:05:01.566Z,5.70
2023-05-12T20:07:28.813Z,5.90
2023-05-12T20:09:55.834Z,6.32
2023-05-12T20:12:22.691Z,6.78
2023-05-12T20:14:50.046Z,6.60
2023-05-12T20:17:16.816Z,6.47
2023-05-12T20:19:43.691Z,6.25
2023-05-12T20:22:10.778Z,6.07
2023-05-12T20:24:37.550Z,5.80
2023-05-12T20:27:04.512Z,6.38
2023-05-12T20:29:31.411Z,6.18
2023-05-12T20:31:58.262Z,5.82
2023-05-12T20:34:25.130Z,6.03
2023-05-12T20:36:52.344Z,6.70
2023-05-12T20:39:19.907Z,6.53
2023-05-12T20:41:46.606Z,7.15
2023-05-12T20:44:13.347Z,7.18
2023-05-12T20:46:40.338Z,7.32
2023-05-12T20:49:07.512Z,6.13
2023-05-12T20:51:34.734Z,6.05
2023-05-12T20:54:01.703Z,6.90
2023-05-12T20:56:28.550Z,6.43
2023-05-12T20:58:57.427Z,6.28
2023-05-12T21:01:24.528Z,5.95
2023-05-12T21:03:51.379Z,6.32
2023-05-12T21:06:18.361Z,6.55
2023-05-12T21:08:46.829Z,6.30
2023-05-12T21:11:18.439Z,6.03
2023-05-12T21:13:47.560Z,6.72
2023-05-12T21:16:15.467Z,6.05
2023-05-12T21:18:42.689Z,6.25
2023-05-12T21:21:09.701Z,6.00
2023-05-12T21:23:37.675Z,6.68
2023-05-12T21:26:05.111Z,6.63
2023-05-12T21:28:32.234Z,7.07
2023-05-12T21:30:59.212Z,7.68
2023-05-12T21:33:26.138Z,6.90
2023-05-12T21:35:53.072Z,7.65
2023-05-12T21:38:21.041Z,7.05
2023-05-12T21:40:55.227Z,7.45
2023-05-12T21:43:22.204Z,8.93
2023-05-12T21:45:49.149Z,7.72
2023-05-12T21:48:16.027Z,8.50
2023-05-12T21:50:42.874Z,7.38
2023-05-12T21:53:09.755Z,7.70
2023-05-12T21:55:36.597Z,7.50
2023-05-12T21:58:03.454Z,7.97
2023-05-12T22:00:30.894Z,7.00
2023-05-12T22:02:58.041Z,6.93
2023-05-12T22:05:25.036Z,7.60
2023-05-12T22:07:51.972Z,7.75
2023-05-12T22:10:19.195Z,7.93
2023-05-12T22:12:46.768Z,6.93
2023-05-12T22:15:13.510Z,6.85
2023-05-12T22:17:40.483Z,7.07
2023-05-12T22:20:09.235Z,7.15
2023-05-12T22:22:36.257Z,7.80
2023-05-12T22:25:04.761Z,8.13
2023-05-12T22:27:31.910Z,8.73
2023-05-12T22:29:59.044Z,8.35
2023-05-12T22:32:26.600Z,7.45
2023-05-12T22:34:54.214Z,7.38
2023-05-12T22:37:22.444Z,8.90
2023-05-12T22:39:49.277Z,8.23
2023-05-12T22:42:15.928Z,8.38
2023-05-12T22:44:42.567Z,8.75
2023-05-12T22:47:09.349Z,7.97
2023-05-12T22:49:36.106Z,8.25
2023-05-12T22:52:02.736Z,8.57
2023-05-12T22:54:29.456Z,8.00
2023-05-12T22:56:56.176Z,8.05
2023-05-12T22:59:22.941Z,7.88
2023-05-12T23:01:49.575Z,7.80
2023-05-12T23:04:16.448Z,7.18
2023-05-12T23:06:43.522Z,7.75
2023-05-12T23:09:10.198Z,7.18
2023-05-12T23:11:36.977Z,7.50
2023-05-12T23:14:03.620Z,8.18
2023-05-12T23:16:30.410Z,7.88
2023-05-12T23:18:57.601Z,7.90
2023-05-12T23:21:24.265Z,7.30
2023-05-12T23:23:50.877Z,8.63
2023-05-12T23:26:17.508Z,7.82
2023-05-12T23:28:44.117Z,8.82
2023-05-12T23:31:10.780Z,6.95
2023-05-12T23:33:37.592Z,7.90
2023-05-12T23:36:04.650Z,7.57
2023-05-12T23:38:31.261Z,6.32
2023-05-12T23:40:57.982Z,7.05
2023-05-12T23:43:24.700Z,6.32
2023-05-12T23:45:51.424Z,7.20
2023-05-12T23:48:18.086Z,6.82
2023-05-12T23:50:44.666Z,6.72
2023-05-12T23:53:11.368Z,6.68
2023-05-12T23:55:38.091Z,7.45
2023-05-12T23:58:04.843Z,6.35
